sensor_id;sensor_type;location;lat;lon;timestamp;temperature;humidity
45233;DHT22;30969;51.052;17.056;2023-07-29T00:02:16;23.70;52.00
45233;DHT22;30969;51.052;17.056;2023-07-29T00:07:20;23.60;51.80
45233;DHT22;30969;51.052;17.056;2023-07-29T00:12:23;23.50;51.90
45233;DHT22;30969;51.052;17.056;2023-07-29T00:17:28;23.50;52.30
45233;DHT22;30969;51.052;17.056;2023-07-29T00:22:31;23.50;52.30
45233;DHT22;30969;51.052;17.056;2023-07-29T00:27:34;23.40;52.20
45233;DHT22;30969;51.052;17.056;2023-07-29T00:32:39;23.40;52.20
45233;DHT22;30969;51.052;17.056;2023-07-29T00:37:42;23.40;52.50
45233;DHT22;30969;51.052;17.056;2023-07-29T00:42:46;23.30;52.70
45233;DHT22;30969;51.052;17.056;2023-07-29T00:47:50;23.30;52.90
45233;DHT22;30969;51.052;17.056;2023-07-29T00:52:54;23.20;53.00
45233;DHT22;30969;51.052;17.056;2023-07-29T00:57:57;23.20;53.00
45233;DHT22;30969;51.052;17.056;2023-07-29T01:03:02;23.10;53.00
45233;DHT22;30969;51.052;17.056;2023-07-29T01:08:06;23.10;53.00
45233;DHT22;30969;51.052;17.056;2023-07-29T01:13:13;23.10;53.00
45233;DHT22;30969;51.052;17.056;2023-07-29T01:18:22;23.10;52.90
45233;DHT22;30969;51.052;17.056;2023-07-29T01:23:27;23.00;52.90
45233;DHT22;30969;51.052;17.056;2023-07-29T01:28:32;23.00;53.10
45233;DHT22;30969;51.052;17.056;2023-07-29T01:33:39;22.90;53.10
45233;DHT22;30969;51.052;17.056;2023-07-29T01:38:44;22.90;53.20
45233;DHT22;30969;51.052;17.056;2023-07-29T01:43:49;22.80;53.20
45233;DHT22;30969;51.052;17.056;2023-07-29T01:48:53;22.70;53.40
45233;DHT22;30969;51.052;17.056;2023-07-29T01:53:57;22.70;53.40
45233;DHT22;30969;51.052;17.056;2023-07-29T01:59:02;22.70;53.40
45233;DHT22;30969;51.052;17.056;2023-07-29T02:04:05;22.60;53.40
45233;DHT22;30969;51.052;17.056;2023-07-29T02:09:10;22.60;53.40
45233;DHT22;30969;51.052;17.056;2023-07-29T02:14:13;22.50;53.40
45233;DHT22;30969;51.052;17.056;2023-07-29T02:19:16;22.50;53.50
45233;DHT22;30969;51.052;17.056;2023-07-29T02:24:21;22.50;53.70
45233;DHT22;30969;51.052;17.056;2023-07-29T02:29:24;22.40;53.70
45233;DHT22;30969;51.052;17.056;2023-07-29T02:34:28;22.40;53.70
45233;DHT22;30969;51.052;17.056;2023-07-29T02:39:33;22.40;53.80
45233;DHT22;30969;51.052;17.056;2023-07-29T02:44:36;22.30;53.90
45233;DHT22;30969;51.052;17.056;2023-07-29T02:49:40;22.20;54.00
45233;DHT22;30969;51.052;17.056;2023-07-29T02:54:44;22.20;54.10
45233;DHT22;30969;51.052;17.056;2023-07-29T02:59:48;22.20;54.20
45233;DHT22;30969;51.052;17.056;2023-07-29T03:04:51;22.10;54.20
45233;DHT22;30969;51.052;17.056;2023-07-29T03:09:56;22.10;54.30
45233;DHT22;30969;51.052;17.056;2023-07-29T03:14:59;22.10;54.30
45233;DHT22;30969;51.052;17.056;2023-07-29T03:20:02;22.00;54.20
45233;DHT22;30969;51.052;17.056;2023-07-29T03:25:07;22.00;54.40
45233;DHT22;30969;51.052;17.056;2023-07-29T03:30:11;21.90;54.60
45233;DHT22;30969;51.052;17.056;2023-07-29T03:35:14;21.80;54.60
45233;DHT22;30969;51.052;17.056;2023-07-29T03:40:20;21.80;54.80
45233;DHT22;30969;51.052;17.056;2023-07-29T03:45:23;21.80;55.00
45233;DHT22;30969;51.052;17.056;2023-07-29T03:50:26;21.80;55.10
45233;DHT22;30969;51.052;17.056;2023-07-29T03:55:31;21.80;55.10
45233;DHT22;30969;51.052;17.056;2023-07-29T04:00:35;21.80;55.00
45233;DHT22;30969;51.052;17.056;2023-07-29T04:05:38;21.80;55.00
45233;DHT22;30969;51.052;17.056;2023-07-29T04:10:43;21.70;55.10
45233;DHT22;30969;51.052;17.056;2023-07-29T04:15:46;21.70;55.40
45233;DHT22;30969;51.052;17.056;2023-07-29T04:20:50;21.60;55.60
45233;DHT22;30969;51.052;17.056;2023-07-29T04:25:55;21.50;55.90
45233;DHT22;30969;51.052;17.056;2023-07-29T04:30:58;21.50;55.90
45233;DHT22;30969;51.052;17.056;2023-07-29T04:36:03;21.40;55.80
45233;DHT22;30969;51.052;17.056;2023-07-29T04:41:07;21.40;55.80
45233;DHT22;30969;51.052;17.056;2023-07-29T04:46:11;21.50;56.00
45233;DHT22;30969;51.052;17.056;2023-07-29T04:51:14;21.50;55.90
45233;DHT22;30969;51.052;17.056;2023-07-29T04:56:19;21.50;56.00
45233;DHT22;30969;51.052;17.056;2023-07-29T05:01:22;21.50;56.00
45233;DHT22;30969;51.052;17.056;2023-07-29T05:06:26;21.50;55.90
45233;DHT22;30969;51.052;17.056;2023-07-29T05:11:32;21.50;56.00
45233;DHT22;30969;51.052;17.056;2023-07-29T05:16:35;21.60;56.10
45233;DHT22;30969;51.052;17.056;2023-07-29T05:21:39;21.60;56.40
45233;DHT22;30969;51.052;17.056;2023-07-29T05:26:44;21.60;56.60
45233;DHT22;30969;51.052;17.056;2023-07-29T05:31:47;21.60;56.80
45233;DHT22;30969;51.052;17.056;2023-07-29T05:36:51;21.60;56.90
45233;DHT22;30969;51.052;17.056;2023-07-29T05:41:56;21.70;57.10
45233;DHT22;30969;51.052;17.056;2023-07-29T05:46:59;21.70;57.00
45233;DHT22;30969;51.052;17.056;2023-07-29T05:52:03;21.70;57.30
45233;DHT22;30969;51.052;17.056;2023-07-29T05:57:07;21.80;57.50
45233;DHT22;30969;51.052;17.056;2023-07-29T06:02:11;21.80;57.80
45233;DHT22;30969;51.052;17.056;2023-07-29T06:07:14;21.90;58.10
45233;DHT22;30969;51.052;17.056;2023-07-29T06:12:19;22.00;58.20
45233;DHT22;30969;51.052;17.056;2023-07-29T06:17:22;22.00;58.50
45233;DHT22;30969;51.052;17.056;2023-07-29T06:22:26;22.10;59.20
45233;DHT22;30969;51.052;17.056;2023-07-29T06:27:30;22.10;59.00
45233;DHT22;30969;51.052;17.056;2023-07-29T06:32:34;22.20;58.80
45233;DHT22;30969;51.052;17.056;2023-07-29T06:37:37;22.20;58.70
45233;DHT22;30969;51.052;17.056;2023-07-29T06:42:43;22.30;58.70
45233;DHT22;30969;51.052;17.056;2023-07-29T06:47:46;22.40;59.20
45233;DHT22;30969;51.052;17.056;2023-07-29T06:52:49;22.50;59.80
45233;DHT22;30969;51.052;17.056;2023-07-29T06:57:57;22.50;59.40
45233;DHT22;30969;51.052;17.056;2023-07-29T07:03:00;22.60;59.30
45233;DHT22;30969;51.052;17.056;2023-07-29T07:08:04;22.70;59.70
45233;DHT22;30969;51.052;17.056;2023-07-29T07:13:09;22.70;59.50
45233;DHT22;30969;51.052;17.056;2023-07-29T07:18:12;22.80;59.40
45233;DHT22;30969;51.052;17.056;2023-07-29T07:23:15;22.90;59.50
45233;DHT22;30969;51.052;17.056;2023-07-29T07:28:20;23.00;60.00
45233;DHT22;30969;51.052;17.056;2023-07-29T07:33:23;23.00;59.70
45233;DHT22;30969;51.052;17.056;2023-07-29T07:38:27;23.10;59.30
45233;DHT22;30969;51.052;17.056;2023-07-29T07:43:32;23.10;59.20
45233;DHT22;30969;51.052;17.056;2023-07-29T07:48:35;23.20;59.00
45233;DHT22;30969;51.052;17.056;2023-07-29T07:53:40;23.30;58.80
45233;DHT22;30969;51.052;17.056;2023-07-29T07:58:45;23.40;59.00
45233;DHT22;30969;51.052;17.056;2023-07-29T08:03:48;23.40;59.10
45233;DHT22;30969;51.052;17.056;2023-07-29T08:08:52;23.50;59.00
45233;DHT22;30969;51.052;17.056;2023-07-29T08:13:57;23.60;58.80
45233;DHT22;30969;51.052;17.056;2023-07-29T08:19:01;23.60;58.60
45233;DHT22;30969;51.052;17.056;2023-07-29T08:24:04;23.70;58.70
45233;DHT22;30969;51.052;17.056;2023-07-29T08:29:10;23.80;58.50
45233;DHT22;30969;51.052;17.056;2023-07-29T08:34:14;23.90;58.40
45233;DHT22;30969;51.052;17.056;2023-07-29T08:39:17;24.00;58.10
45233;DHT22;30969;51.052;17.056;2023-07-29T08:44:23;24.10;58.00
45233;DHT22;30969;51.052;17.056;2023-07-29T08:49:27;24.20;57.80
45233;DHT22;30969;51.052;17.056;2023-07-29T08:54:31;24.30;57.70
45233;DHT22;30969;51.052;17.056;2023-07-29T08:59:36;24.30;57.40
45233;DHT22;30969;51.052;17.056;2023-07-29T09:04:40;24.40;57.20
45233;DHT22;30969;51.052;17.056;2023-07-29T09:09:43;24.50;57.10
45233;DHT22;30969;51.052;17.056;2023-07-29T09:14:48;24.50;57.00
45233;DHT22;30969;51.052;17.056;2023-07-29T09:19:57;24.60;56.90
45233;DHT22;30969;51.052;17.056;2023-07-29T09:25:00;24.60;56.70
45233;DHT22;30969;51.052;17.056;2023-07-29T09:30:06;24.70;56.70
45233;DHT22;30969;51.052;17.056;2023-07-29T09:35:10;24.70;56.70
45233;DHT22;30969;51.052;17.056;2023-07-29T09:40:14;24.80;56.40
45233;DHT22;30969;51.052;17.056;2023-07-29T09:45:20;24.80;56.20
45233;DHT22;30969;51.052;17.056;2023-07-29T09:50:24;25.00;56.20
45233;DHT22;30969;51.052;17.056;2023-07-29T09:55:27;25.00;56.00
45233;DHT22;30969;51.052;17.056;2023-07-29T10:00:32;25.10;55.80
45233;DHT22;30969;51.052;17.056;2023-07-29T10:05:36;25.20;55.70
45233;DHT22;30969;51.052;17.056;2023-07-29T10:10:41;25.30;55.60
45233;DHT22;30969;51.052;17.056;2023-07-29T10:15:46;25.40;55.30
45233;DHT22;30969;51.052;17.056;2023-07-29T10:20:50;25.40;54.90
45233;DHT22;30969;51.052;17.056;2023-07-29T10:25:55;25.50;54.70
45233;DHT22;30969;51.052;17.056;2023-07-29T10:31:02;25.60;54.60
45233;DHT22;30969;51.052;17.056;2023-07-29T10:36:06;25.60;54.50
45233;DHT22;30969;51.052;17.056;2023-07-29T10:41:11;25.70;54.30
45233;DHT22;30969;51.052;17.056;2023-07-29T10:46:16;25.70;54.00
45233;DHT22;30969;51.052;17.056;2023-07-29T10:51:24;25.80;53.80
45233;DHT22;30969;51.052;17.056;2023-07-29T10:56:28;25.90;53.70
45233;DHT22;30969;51.052;17.056;2023-07-29T11:01:34;26.00;53.60
45233;DHT22;30969;51.052;17.056;2023-07-29T11:11:57;26.10;53.20
45233;DHT22;30969;51.052;17.056;2023-07-29T11:17:09;26.10;53.20
45233;DHT22;30969;51.052;17.056;2023-07-29T11:22:13;26.20;52.70
45233;DHT22;30969;51.052;17.056;2023-07-29T11:27:16;26.30;52.30
45233;DHT22;30969;51.052;17.056;2023-07-29T11:32:21;26.40;52.10
45233;DHT22;30969;51.052;17.056;2023-07-29T11:37:24;26.60;51.40
45233;DHT22;30969;51.052;17.056;2023-07-29T11:42:28;26.70;51.00
45233;DHT22;30969;51.052;17.056;2023-07-29T11:47:33;26.80;50.70
45233;DHT22;30969;51.052;17.056;2023-07-29T11:52:39;27.00;50.50
45233;DHT22;30969;51.052;17.056;2023-07-29T11:57:43;27.00;50.10
45233;DHT22;30969;51.052;17.056;2023-07-29T12:02:48;27.10;49.80
45233;DHT22;30969;51.052;17.056;2023-07-29T12:07:52;27.10;49.50
45233;DHT22;30969;51.052;17.056;2023-07-29T12:12:56;27.20;49.10
45233;DHT22;30969;51.052;17.056;2023-07-29T12:18:00;27.20;48.80
45233;DHT22;30969;51.052;17.056;2023-07-29T12:23:04;27.20;48.30
45233;DHT22;30969;51.052;17.056;2023-07-29T12:28:08;27.30;48.10
45233;DHT22;30969;51.052;17.056;2023-07-29T12:33:28;27.40;47.90
45233;DHT22;30969;51.052;17.056;2023-07-29T12:38:32;27.50;47.50
45233;DHT22;30969;51.052;17.056;2023-07-29T12:43:35;27.60;47.20
45233;DHT22;30969;51.052;17.056;2023-07-29T12:48:41;27.70;47.00
45233;DHT22;30969;51.052;17.056;2023-07-29T12:53:44;27.80;47.50
45233;DHT22;30969;51.052;17.056;2023-07-29T12:58:50;27.80;46.20
45233;DHT22;30969;51.052;17.056;2023-07-29T13:03:55;27.90;45.90
45233;DHT22;30969;51.052;17.056;2023-07-29T13:08:58;27.90;45.80
45233;DHT22;30969;51.052;17.056;2023-07-29T13:14:02;28.00;45.40
45233;DHT22;30969;51.052;17.056;2023-07-29T13:19:07;28.00;45.40
45233;DHT22;30969;51.052;17.056;2023-07-29T13:24:10;28.00;45.10
45233;DHT22;30969;51.052;17.056;2023-07-29T13:29:14;28.10;45.00
45233;DHT22;30969;51.052;17.056;2023-07-29T13:34:18;28.10;45.00
45233;DHT22;30969;51.052;17.056;2023-07-29T13:39:22;28.10;44.40
45233;DHT22;30969;51.052;17.056;2023-07-29T13:44:25;28.20;44.00
45233;DHT22;30969;51.052;17.056;2023-07-29T13:49:30;28.30;43.90
45233;DHT22;30969;51.052;17.056;2023-07-29T13:54:33;28.40;43.90
45233;DHT22;30969;51.052;17.056;2023-07-29T13:59:37;28.50;43.70
45233;DHT22;30969;51.052;17.056;2023-07-29T14:04:42;28.60;43.80
45233;DHT22;30969;51.052;17.056;2023-07-29T14:09:45;28.70;43.70
45233;DHT22;30969;51.052;17.056;2023-07-29T14:14:49;29.00;44.00
45233;DHT22;30969;51.052;17.056;2023-07-29T14:19:53;29.30;43.40
45233;DHT22;30969;51.052;17.056;2023-07-29T14:24:57;29.40;42.30
45233;DHT22;30969;51.052;17.056;2023-07-29T14:30:02;29.40;41.80
45233;DHT22;30969;51.052;17.056;2023-07-29T14:35:07;29.30;41.90
45233;DHT22;30969;51.052;17.056;2023-07-29T14:40:11;29.20;41.80
45233;DHT22;30969;51.052;17.056;2023-07-29T14:45:14;29.00;41.90
45233;DHT22;30969;51.052;17.056;2023-07-29T14:50:19;28.90;42.00
45233;DHT22;30969;51.052;17.056;2023-07-29T14:55:22;28.80;42.20
45233;DHT22;30969;51.052;17.056;2023-07-29T15:00:26;28.60;42.40
45233;DHT22;30969;51.052;17.056;2023-07-29T15:05:31;28.50;42.50
45233;DHT22;30969;51.052;17.056;2023-07-29T15:10:34;28.40;42.90
45233;DHT22;30969;51.052;17.056;2023-07-29T15:15:39;28.30;42.90
45233;DHT22;30969;51.052;17.056;2023-07-29T15:20:44;28.20;43.30
45233;DHT22;30969;51.052;17.056;2023-07-29T15:25:48;28.10;43.50
45233;DHT22;30969;51.052;17.056;2023-07-29T15:30:52;28.10;43.70
45233;DHT22;30969;51.052;17.056;2023-07-29T15:35:56;28.00;43.80
45233;DHT22;30969;51.052;17.056;2023-07-29T15:41:00;28.00;44.10
45233;DHT22;30969;51.052;17.056;2023-07-29T15:46:03;27.90;44.00
45233;DHT22;30969;51.052;17.056;2023-07-29T15:51:08;27.90;44.20
45233;DHT22;30969;51.052;17.056;2023-07-29T15:56:11;27.80;44.30
45233;DHT22;30969;51.052;17.056;2023-07-29T16:01:14;27.80;44.70
45233;DHT22;30969;51.052;17.056;2023-07-29T16:06:19;27.70;44.70
45233;DHT22;30969;51.052;17.056;2023-07-29T16:11:22;27.60;44.90
45233;DHT22;30969;51.052;17.056;2023-07-29T16:16:27;27.60;45.30
45233;DHT22;30969;51.052;17.056;2023-07-29T16:21:32;27.50;45.50
45233;DHT22;30969;51.052;17.056;2023-07-29T16:26:35;27.50;45.50
45233;DHT22;30969;51.052;17.056;2023-07-29T16:31:39;27.40;45.40
45233;DHT22;30969;51.052;17.056;2023-07-29T16:36:44;27.40;45.50
45233;DHT22;30969;51.052;17.056;2023-07-29T16:41:47;27.30;45.30
45233;DHT22;30969;51.052;17.056;2023-07-29T16:47:06;27.30;45.40
45233;DHT22;30969;51.052;17.056;2023-07-29T16:52:11;27.10;45.20
45233;DHT22;30969;51.052;17.056;2023-07-29T16:57:16;27.10;45.00
45233;DHT22;30969;51.052;17.056;2023-07-29T17:02:19;27.00;45.00
45233;DHT22;30969;51.052;17.056;2023-07-29T17:07:24;27.00;45.10
45233;DHT22;30969;51.052;17.056;2023-07-29T17:12:27;26.90;45.20
45233;DHT22;30969;51.052;17.056;2023-07-29T17:17:30;26.90;46.00
45233;DHT22;30969;51.052;17.056;2023-07-29T17:22:35;26.80;45.10
45233;DHT22;30969;51.052;17.056;2023-07-29T17:27:39;26.80;45.20
45233;DHT22;30969;51.052;17.056;2023-07-29T17:32:43;26.70;45.30
45233;DHT22;30969;51.052;17.056;2023-07-29T17:37:48;26.70;45.40
45233;DHT22;30969;51.052;17.056;2023-07-29T17:42:51;26.70;45.70
45233;DHT22;30969;51.052;17.056;2023-07-29T17:47:55;26.60;45.80
45233;DHT22;30969;51.052;17.056;2023-07-29T17:53:00;26.60;45.90
45233;DHT22;30969;51.052;17.056;2023-07-29T17:58:03;26.60;46.00
45233;DHT22;30969;51.052;17.056;2023-07-29T18:03:09;26.60;46.00
45233;DHT22;30969;51.052;17.056;2023-07-29T18:08:14;26.60;46.00
45233;DHT22;30969;51.052;17.056;2023-07-29T18:13:17;26.50;46.00
45233;DHT22;30969;51.052;17.056;2023-07-29T18:18:22;26.50;46.10
45233;DHT22;30969;51.052;17.056;2023-07-29T18:23:27;26.40;46.10
45233;DHT22;30969;51.052;17.056;2023-07-29T18:28:32;26.40;46.20
45233;DHT22;30969;51.052;17.056;2023-07-29T18:33:36;26.30;46.20
45233;DHT22;30969;51.052;17.056;2023-07-29T18:38:40;26.30;46.50
45233;DHT22;30969;51.052;17.056;2023-07-29T18:43:44;26.20;46.70
45233;DHT22;30969;51.052;17.056;2023-07-29T18:48:47;26.20;46.90
45233;DHT22;30969;51.052;17.056;2023-07-29T18:53:51;26.20;47.00
45233;DHT22;30969;51.052;17.056;2023-07-29T18:58:55;26.10;47.10
45233;DHT22;30969;51.052;17.056;2023-07-29T19:03:58;26.00;47.10
45233;DHT22;30969;51.052;17.056;2023-07-29T19:09:03;26.00;47.30
45233;DHT22;30969;51.052;17.056;2023-07-29T19:14:07;25.90;47.30
45233;DHT22;30969;51.052;17.056;2023-07-29T19:19:10;25.90;47.50
45233;DHT22;30969;51.052;17.056;2023-07-29T19:24:15;25.80;47.80
45233;DHT22;30969;51.052;17.056;2023-07-29T19:29:18;25.70;48.00
45233;DHT22;30969;51.052;17.056;2023-07-29T19:34:22;25.70;48.40
45233;DHT22;30969;51.052;17.056;2023-07-29T19:39:26;25.60;48.80
45233;DHT22;30969;51.052;17.056;2023-07-29T19:44:30;25.50;49.10
45233;DHT22;30969;51.052;17.056;2023-07-29T19:49:35;25.40;49.40
45233;DHT22;30969;51.052;17.056;2023-07-29T19:54:41;25.30;49.80
45233;DHT22;30969;51.052;17.056;2023-07-29T19:59:44;25.30;50.30
45233;DHT22;30969;51.052;17.056;2023-07-29T20:04:51;25.30;51.00
45233;DHT22;30969;51.052;17.056;2023-07-29T20:09:55;25.20;51.00
45233;DHT22;30969;51.052;17.056;2023-07-29T20:14:59;25.20;51.00
45233;DHT22;30969;51.052;17.056;2023-07-29T20:20:05;25.20;51.10
45233;DHT22;30969;51.052;17.056;2023-07-29T20:25:10;25.30;51.40
45233;DHT22;30969;51.052;17.056;2023-07-29T20:30:13;25.30;51.40
45233;DHT22;30969;51.052;17.056;2023-07-29T20:35:17;25.40;51.40
45233;DHT22;30969;51.052;17.056;2023-07-29T20:40:23;25.40;54.00
45233;DHT22;30969;51.052;17.056;2023-07-29T20:45:27;25.50;53.90
45233;DHT22;30969;51.052;17.056;2023-07-29T20:50:30;25.40;54.30
45233;DHT22;30969;51.052;17.056;2023-07-29T20:55:35;25.40;54.60
45233;DHT22;30969;51.052;17.056;2023-07-29T21:00:39;25.30;54.90
45233;DHT22;30969;51.052;17.056;2023-07-29T21:05:42;25.30;55.50
45233;DHT22;30969;51.052;17.056;2023-07-29T21:10:49;25.20;55.10
45233;DHT22;30969;51.052;17.056;2023-07-29T21:15:53;25.20;55.30
45233;DHT22;30969;51.052;17.056;2023-07-29T21:20:57;25.10;55.40
45233;DHT22;30969;51.052;17.056;2023-07-29T21:26:02;25.10;55.50
45233;DHT22;30969;51.052;17.056;2023-07-29T21:31:05;25.00;55.60
45233;DHT22;30969;51.052;17.056;2023-07-29T21:36:09;24.90;55.80
45233;DHT22;30969;51.052;17.056;2023-07-29T21:41:13;24.80;56.10
45233;DHT22;30969;51.052;17.056;2023-07-29T21:46:17;24.70;56.20
45233;DHT22;30969;51.052;17.056;2023-07-29T21:51:20;24.60;56.40
45233;DHT22;30969;51.052;17.056;2023-07-29T21:56:27;24.40;56.50
45233;DHT22;30969;51.052;17.056;2023-07-29T22:01:30;24.40;56.70
45233;DHT22;30969;51.052;17.056;2023-07-29T22:06:33;24.40;56.60
45233;DHT22;30969;51.052;17.056;2023-07-29T22:11:38;24.40;56.50
45233;DHT22;30969;51.052;17.056;2023-07-29T22:16:42;24.40;56.50
45233;DHT22;30969;51.052;17.056;2023-07-29T22:21:45;24.50;56.20
45233;DHT22;30969;51.052;17.056;2023-07-29T22:26:53;24.40;56.00
45233;DHT22;30969;51.052;17.056;2023-07-29T22:31:57;24.50;55.80
45233;DHT22;30969;51.052;17.056;2023-07-29T22:37:00;24.40;55.50
45233;DHT22;30969;51.052;17.056;2023-07-29T22:42:05;24.30;55.10
45233;DHT22;30969;51.052;17.056;2023-07-29T22:47:09;24.20;55.20
45233;DHT22;30969;51.052;17.056;2023-07-29T22:52:12;24.10;55.10
45233;DHT22;30969;51.052;17.056;2023-07-29T22:57:17;24.00;55.10
45233;DHT22;30969;51.052;17.056;2023-07-29T23:02:20;23.90;55.20
45233;DHT22;30969;51.052;17.056;2023-07-29T23:07:24;23.80;55.20
45233;DHT22;30969;51.052;17.056;2023-07-29T23:12:29;23.70;55.40
45233;DHT22;30969;51.052;17.056;2023-07-29T23:17:32;23.60;55.50
45233;DHT22;30969;51.052;17.056;2023-07-29T23:22:35;23.50;55.50
45233;DHT22;30969;51.052;17.056;2023-07-29T23:27:40;23.40;55.40
45233;DHT22;30969;51.052;17.056;2023-07-29T23:32:43;23.30;55.50
45233;DHT22;30969;51.052;17.056;2023-07-29T23:37:47;23.30;55.90
45233;DHT22;30969;51.052;17.056;2023-07-29T23:42:53;23.20;55.80
45233;DHT22;30969;51.052;17.056;2023-07-29T23:47:57;23.10;55.80
45233;DHT22;30969;51.052;17.056;2023-07-29T23:53:00;23.10;55.70
45233;DHT22;30969;51.052;17.056;2023-07-29T23:58:06;23.00;55.60
